Grand Canyon Natl Park, Arizona
Current Conditions -  °F | °C
As of 6:54 AM on Friday 28 Nov 2014 (Local Time) from KGCN Reporting Station
Clear Clear  
Wind Chill: -9°   Ceiling: Unl
Heat Index: -9°   Visibility: 10mi
Dew Point: -16°   Wind: 3mph
Humidity: 59%   Direction: NA
Pressure: 30.28"   Gusts: NA
Location:  36.2°N, 112.07°W
Report Text: KGCN 281354Z VRB03KT 10SM CLR M09/M16 A3028 RMK AO2 SLP264 T10941161
Loading
Personal Weather Stations






























Interactive Weather Map New forecast layout! Learn more

10-Day Weather Forecast

Advertisements
Track Severe Weather on mobile